sensor_id;sensor_type;location;lat;lon;timestamp;P1;durP1;ratioP1;P2;durP2;ratioP2
69392;SDS011;56582;44.624;20.378;2023-02-07T00:01:17;28.70;;;13.32;;
69392;SDS011;56582;44.624;20.378;2023-02-07T00:03:43;32.22;;;13.80;;
69392;SDS011;56582;44.624;20.378;2023-02-07T00:06:13;25.77;;;14.27;;
69392;SDS011;56582;44.624;20.378;2023-02-07T00:08:41;34.83;;;17.00;;
69392;SDS011;56582;44.624;20.378;2023-02-07T00:11:08;37.72;;;18.55;;
69392;SDS011;56582;44.624;20.378;2023-02-07T00:13:40;31.40;;;15.77;;
69392;SDS011;56582;44.624;20.378;2023-02-07T00:16:06;26.07;;;13.93;;
69392;SDS011;56582;44.624;20.378;2023-02-07T00:18:33;24.33;;;13.87;;
69392;SDS011;56582;44.624;20.378;2023-02-07T00:20:59;28.48;;;14.43;;
69392;SDS011;56582;44.624;20.378;2023-02-07T00:23:26;25.60;;;13.35;;
69392;SDS011;56582;44.624;20.378;2023-02-07T00:25:52;25.90;;;13.57;;
69392;SDS011;56582;44.624;20.378;2023-02-07T00:28:17;25.17;;;14.43;;
69392;SDS011;56582;44.624;20.378;2023-02-07T00:30:43;28.17;;;12.57;;
69392;SDS011;56582;44.624;20.378;2023-02-07T00:33:08;24.70;;;15.60;;
69392;SDS011;56582;44.624;20.378;2023-02-07T00:35:33;24.57;;;13.33;;
69392;SDS011;56582;44.624;20.378;2023-02-07T00:37:59;26.23;;;13.53;;
69392;SDS011;56582;44.624;20.378;2023-02-07T00:40:24;15.80;;;10.53;;
69392;SDS011;56582;44.624;20.378;2023-02-07T00:42:50;28.55;;;15.68;;
69392;SDS011;56582;44.624;20.378;2023-02-07T00:45:15;22.97;;;14.17;;
69392;SDS011;56582;44.624;20.378;2023-02-07T00:47:41;24.97;;;12.53;;
69392;SDS011;56582;44.624;20.378;2023-02-07T00:50:06;24.70;;;12.63;;
69392;SDS011;56582;44.624;20.378;2023-02-07T00:52:32;17.70;;;10.68;;
69392;SDS011;56582;44.624;20.378;2023-02-07T00:54:57;24.97;;;14.00;;
69392;SDS011;56582;44.624;20.378;2023-02-07T00:57:23;34.23;;;16.87;;
69392;SDS011;56582;44.624;20.378;2023-02-07T00:59:48;31.63;;;15.63;;
69392;SDS011;56582;44.624;20.378;2023-02-07T01:02:14;28.93;;;15.40;;
69392;SDS011;56582;44.624;20.378;2023-02-07T01:04:39;37.83;;;17.27;;
69392;SDS011;56582;44.624;20.378;2023-02-07T01:07:04;26.40;;;14.70;;
69392;SDS011;56582;44.624;20.378;2023-02-07T01:09:30;34.50;;;18.00;;
69392;SDS011;56582;44.624;20.378;2023-02-07T01:11:55;35.17;;;17.33;;
69392;SDS011;56582;44.624;20.378;2023-02-07T01:14:21;30.20;;;15.67;;
69392;SDS011;56582;44.624;20.378;2023-02-07T01:16:46;34.47;;;14.97;;
69392;SDS011;56582;44.624;20.378;2023-02-07T01:19:13;38.60;;;17.55;;
69392;SDS011;56582;44.624;20.378;2023-02-07T01:21:38;32.40;;;16.10;;
69392;SDS011;56582;44.624;20.378;2023-02-07T01:24:04;23.50;;;10.70;;
69392;SDS011;56582;44.624;20.378;2023-02-07T01:26:30;21.90;;;12.82;;
69392;SDS011;56582;44.624;20.378;2023-02-07T01:28:55;33.47;;;15.07;;
69392;SDS011;56582;44.624;20.378;2023-02-07T01:31:21;28.53;;;14.23;;
69392;SDS011;56582;44.624;20.378;2023-02-07T01:33:51;21.75;;;11.20;;
69392;SDS011;56582;44.624;20.378;2023-02-07T01:36:18;20.75;;;13.35;;
69392;SDS011;56582;44.624;20.378;2023-02-07T01:38:43;21.97;;;13.10;;
69392;SDS011;56582;44.624;20.378;2023-02-07T01:41:09;12.35;;;9.05;;
69392;SDS011;56582;44.624;20.378;2023-02-07T01:43:53;24.93;;;13.30;;
69392;SDS011;56582;44.624;20.378;2023-02-07T01:46:25;26.65;;;15.45;;
69392;SDS011;56582;44.624;20.378;2023-02-07T01:48:52;26.85;;;14.32;;
69392;SDS011;56582;44.624;20.378;2023-02-07T01:51:19;21.90;;;10.93;;
69392;SDS011;56582;44.624;20.378;2023-02-07T01:53:45;23.63;;;13.07;;
69392;SDS011;56582;44.624;20.378;2023-02-07T01:56:11;31.07;;;15.97;;
69392;SDS011;56582;44.624;20.378;2023-02-07T01:58:39;26.20;;;13.90;;
69392;SDS011;56582;44.624;20.378;2023-02-07T02:01:08;25.47;;;13.73;;
69392;SDS011;56582;44.624;20.378;2023-02-07T02:03:39;27.02;;;14.55;;
69392;SDS011;56582;44.624;20.378;2023-02-07T02:06:07;28.40;;;14.88;;
69392;SDS011;56582;44.624;20.378;2023-02-07T02:08:35;27.88;;;14.02;;
69392;SDS011;56582;44.624;20.378;2023-02-07T02:16:24;22.07;;;12.33;;
69392;SDS011;56582;44.624;20.378;2023-02-07T02:30:27;22.53;;;10.80;;
69392;SDS011;56582;44.624;20.378;2023-02-07T02:38:42;30.15;;;14.73;;
69392;SDS011;56582;44.624;20.378;2023-02-07T02:41:19;18.98;;;10.32;;
69392;SDS011;56582;44.624;20.378;2023-02-07T02:43:52;22.90;;;13.07;;
69392;SDS011;56582;44.624;20.378;2023-02-07T09:05:22;12.30;;;9.23;;
69392;SDS011;56582;44.624;20.378;2023-02-07T09:07:47;16.57;;;11.47;;
69392;SDS011;56582;44.624;20.378;2023-02-07T09:10:13;20.48;;;12.60;;
69392;SDS011;56582;44.624;20.378;2023-02-07T09:12:39;17.27;;;11.13;;
69392;SDS011;56582;44.624;20.378;2023-02-07T09:15:05;17.65;;;10.88;;
69392;SDS011;56582;44.624;20.378;2023-02-07T09:17:30;26.30;;;14.50;;
69392;SDS011;56582;44.624;20.378;2023-02-07T09:19:56;31.40;;;16.42;;
69392;SDS011;56582;44.624;20.378;2023-02-07T09:22:24;43.37;;;18.77;;
69392;SDS011;56582;44.624;20.378;2023-02-07T09:24:51;31.38;;;16.10;;
69392;SDS011;56582;44.624;20.378;2023-02-07T09:27:16;34.30;;;15.27;;
69392;SDS011;56582;44.624;20.378;2023-02-07T09:29:41;42.50;;;20.57;;
69392;SDS011;56582;44.624;20.378;2023-02-07T09:32:08;41.03;;;19.38;;
69392;SDS011;56582;44.624;20.378;2023-02-07T09:34:33;27.90;;;13.57;;
69392;SDS011;56582;44.624;20.378;2023-02-07T09:36:59;16.40;;;10.45;;
69392;SDS011;56582;44.624;20.378;2023-02-07T09:39:24;33.60;;;17.77;;
69392;SDS011;56582;44.624;20.378;2023-02-07T09:49:37;20.03;;;10.60;;
69392;SDS011;56582;44.624;20.378;2023-02-07T09:52:13;30.77;;;16.00;;
69392;SDS011;56582;44.624;20.378;2023-02-07T09:54:53;22.95;;;13.38;;
69392;SDS011;56582;44.624;20.378;2023-02-07T09:57:22;23.83;;;13.95;;
69392;SDS011;56582;44.624;20.378;2023-02-07T09:59:53;22.13;;;12.65;;
69392;SDS011;56582;44.624;20.378;2023-02-07T10:02:28;26.37;;;15.00;;
69392;SDS011;56582;44.624;20.378;2023-02-07T10:05:15;25.80;;;14.40;;
69392;SDS011;56582;44.624;20.378;2023-02-07T10:07:43;27.08;;;12.93;;
69392;SDS011;56582;44.624;20.378;2023-02-07T10:16:03;25.07;;;13.43;;
69392;SDS011;56582;44.624;20.378;2023-02-07T10:31:58;23.65;;;13.25;;
69392;SDS011;56582;44.624;20.378;2023-02-07T10:34:29;23.85;;;13.32;;
69392;SDS011;56582;44.624;20.378;2023-02-07T10:36:57;26.50;;;12.30;;
69392;SDS011;56582;44.624;20.378;2023-02-07T10:39:24;17.53;;;11.77;;
69392;SDS011;56582;44.624;20.378;2023-02-07T10:42:14;31.45;;;16.80;;
69392;SDS011;56582;44.624;20.378;2023-02-07T10:44:41;48.22;;;21.38;;
69392;SDS011;56582;44.624;20.378;2023-02-07T10:47:09;28.20;;;15.50;;
69392;SDS011;56582;44.624;20.378;2023-02-07T10:49:38;20.93;;;11.03;;
69392;SDS011;56582;44.624;20.378;2023-02-07T10:55:00;19.55;;;10.93;;
69392;SDS011;56582;44.624;20.378;2023-02-07T10:57:28;49.70;;;20.83;;
69392;SDS011;56582;44.624;20.378;2023-02-07T11:00:05;58.73;;;24.17;;
69392;SDS011;56582;44.624;20.378;2023-02-07T11:02:37;34.95;;;18.70;;
69392;SDS011;56582;44.624;20.378;2023-02-07T11:07:40;23.70;;;14.27;;
69392;SDS011;56582;44.624;20.378;2023-02-07T11:10:20;21.60;;;13.57;;
69392;SDS011;56582;44.624;20.378;2023-02-07T11:12:52;26.77;;;17.03;;
69392;SDS011;56582;44.624;20.378;2023-02-07T11:15:20;32.55;;;18.92;;
69392;SDS011;56582;44.624;20.378;2023-02-07T11:18:00;40.97;;;20.05;;
69392;SDS011;56582;44.624;20.378;2023-02-07T11:24:26;17.55;;;10.82;;
69392;SDS011;56582;44.624;20.378;2023-02-07T11:26:56;25.17;;;13.93;;
69392;SDS011;56582;44.624;20.378;2023-02-07T11:29:27;27.55;;;15.07;;
69392;SDS011;56582;44.624;20.378;2023-02-07T11:31:56;24.52;;;14.60;;
69392;SDS011;56582;44.624;20.378;2023-02-07T11:34:41;22.23;;;12.23;;
69392;SDS011;56582;44.624;20.378;2023-02-07T11:37:17;24.52;;;12.85;;
69392;SDS011;56582;44.624;20.378;2023-02-07T11:45:37;18.23;;;11.25;;
69392;SDS011;56582;44.624;20.378;2023-02-07T11:48:06;21.45;;;13.18;;
69392;SDS011;56582;44.624;20.378;2023-02-07T11:50:38;19.67;;;11.67;;
69392;SDS011;56582;44.624;20.378;2023-02-07T11:53:05;26.77;;;14.15;;
69392;SDS011;56582;44.624;20.378;2023-02-07T11:55:41;27.15;;;14.15;;
69392;SDS011;56582;44.624;20.378;2023-02-07T11:58:09;18.63;;;12.48;;
69392;SDS011;56582;44.624;20.378;2023-02-07T12:00:42;28.35;;;15.55;;
69392;SDS011;56582;44.624;20.378;2023-02-07T12:03:20;20.47;;;12.93;;
69392;SDS011;56582;44.624;20.378;2023-02-07T12:05:48;13.65;;;10.25;;
69392;SDS011;56582;44.624;20.378;2023-02-07T12:08:18;18.67;;;11.75;;
69392;SDS011;56582;44.624;20.378;2023-02-07T12:10:50;20.52;;;11.07;;
69392;SDS011;56582;44.624;20.378;2023-02-07T12:13:26;14.00;;;9.80;;
69392;SDS011;56582;44.624;20.378;2023-02-07T12:16:22;18.40;;;10.87;;
69392;SDS011;56582;44.624;20.378;2023-02-07T12:18:52;21.13;;;12.45;;
69392;SDS011;56582;44.624;20.378;2023-02-07T12:21:49;20.67;;;13.07;;
69392;SDS011;56582;44.624;20.378;2023-02-07T12:24:23;18.70;;;11.40;;
69392;SDS011;56582;44.624;20.378;2023-02-07T12:27:03;25.52;;;14.35;;
69392;SDS011;56582;44.624;20.378;2023-02-07T12:38:00;25.35;;;14.38;;
69392;SDS011;56582;44.624;20.378;2023-02-07T12:43:28;24.57;;;13.33;;
69392;SDS011;56582;44.624;20.378;2023-02-07T12:56:39;25.97;;;12.43;;
69392;SDS011;56582;44.624;20.378;2023-02-07T12:59:25;19.70;;;11.35;;
69392;SDS011;56582;44.624;20.378;2023-02-07T13:07:36;26.00;;;13.75;;
69392;SDS011;56582;44.624;20.378;2023-02-07T13:10:17;32.10;;;16.77;;
69392;SDS011;56582;44.624;20.378;2023-02-07T13:23:50;27.20;;;14.63;;
69392;SDS011;56582;44.624;20.378;2023-02-07T13:26:20;38.33;;;18.48;;
69392;SDS011;56582;44.624;20.378;2023-02-07T13:29:03;38.95;;;18.85;;
69392;SDS011;56582;44.624;20.378;2023-02-07T13:31:57;66.00;;;27.08;;
69392;SDS011;56582;44.624;20.378;2023-02-07T13:34:29;26.00;;;13.02;;
69392;SDS011;56582;44.624;20.378;2023-02-07T13:36:59;32.03;;;14.93;;
69392;SDS011;56582;44.624;20.378;2023-02-07T13:53:16;24.52;;;11.95;;
69392;SDS011;56582;44.624;20.378;2023-02-07T13:55:44;56.03;;;22.05;;
69392;SDS011;56582;44.624;20.378;2023-02-07T14:01:32;27.37;;;14.37;;
69392;SDS011;56582;44.624;20.378;2023-02-07T14:06:27;32.75;;;17.70;;
69392;SDS011;56582;44.624;20.378;2023-02-07T14:09:05;23.27;;;13.80;;
69392;SDS011;56582;44.624;20.378;2023-02-07T14:11:39;28.15;;;15.55;;
69392;SDS011;56582;44.624;20.378;2023-02-07T14:32:38;21.27;;;11.85;;
69392;SDS011;56582;44.624;20.378;2023-02-07T14:37:59;82.80;;;31.80;;
69392;SDS011;56582;44.624;20.378;2023-02-07T14:40:28;19.07;;;10.80;;
69392;SDS011;56582;44.624;20.378;2023-02-07T14:43:00;21.10;;;11.68;;
69392;SDS011;56582;44.624;20.378;2023-02-07T14:45:30;24.65;;;13.40;;
69392;SDS011;56582;44.624;20.378;2023-02-07T14:47:57;31.67;;;16.42;;
69392;SDS011;56582;44.624;20.378;2023-02-07T14:50:27;26.30;;;14.87;;
69392;SDS011;56582;44.624;20.378;2023-02-07T14:52:57;24.85;;;13.23;;
69392;SDS011;56582;44.624;20.378;2023-02-07T14:58:33;34.70;;;14.57;;
69392;SDS011;56582;44.624;20.378;2023-02-07T15:01:04;29.42;;;15.40;;
69392;SDS011;56582;44.624;20.378;2023-02-07T15:03:38;25.43;;;13.53;;
69392;SDS011;56582;44.624;20.378;2023-02-07T15:06:13;42.97;;;22.30;;
69392;SDS011;56582;44.624;20.378;2023-02-07T15:08:53;35.67;;;17.67;;
69392;SDS011;56582;44.624;20.378;2023-02-07T15:11:25;34.33;;;18.15;;
69392;SDS011;56582;44.624;20.378;2023-02-07T15:13:55;32.37;;;18.43;;
69392;SDS011;56582;44.624;20.378;2023-02-07T15:16:25;24.67;;;12.80;;
69392;SDS011;56582;44.624;20.378;2023-02-07T15:18:59;28.65;;;14.65;;
69392;SDS011;56582;44.624;20.378;2023-02-07T15:26:33;30.37;;;16.27;;
69392;SDS011;56582;44.624;20.378;2023-02-07T15:29:01;61.53;;;26.70;;
69392;SDS011;56582;44.624;20.378;2023-02-07T15:31:29;33.15;;;15.93;;
69392;SDS011;56582;44.624;20.378;2023-02-07T15:33:56;33.67;;;18.40;;
69392;SDS011;56582;44.624;20.378;2023-02-07T15:36:26;23.88;;;14.45;;
69392;SDS011;56582;44.624;20.378;2023-02-07T15:39:00;25.30;;;14.93;;
69392;SDS011;56582;44.624;20.378;2023-02-07T15:41:29;29.02;;;14.57;;
69392;SDS011;56582;44.624;20.378;2023-02-07T15:44:05;28.40;;;16.38;;
69392;SDS011;56582;44.624;20.378;2023-02-07T15:47:05;29.83;;;17.58;;
69392;SDS011;56582;44.624;20.378;2023-02-07T15:51:50;23.35;;;14.35;;
69392;SDS011;56582;44.624;20.378;2023-02-07T15:54:17;20.77;;;11.90;;
69392;SDS011;56582;44.624;20.378;2023-02-07T15:56:47;26.48;;;12.27;;
69392;SDS011;56582;44.624;20.378;2023-02-07T15:59:17;33.08;;;16.00;;
69392;SDS011;56582;44.624;20.378;2023-02-07T16:01:55;34.37;;;17.10;;
69392;SDS011;56582;44.624;20.378;2023-02-07T16:04:23;26.02;;;13.75;;
69392;SDS011;56582;44.624;20.378;2023-02-07T16:06:53;33.42;;;16.08;;
69392;SDS011;56582;44.624;20.378;2023-02-07T16:09:38;28.27;;;14.80;;
69392;SDS011;56582;44.624;20.378;2023-02-07T16:12:21;57.10;;;24.58;;
69392;SDS011;56582;44.624;20.378;2023-02-07T16:15:20;31.53;;;15.13;;
69392;SDS011;56582;44.624;20.378;2023-02-07T16:18:02;52.72;;;22.67;;
69392;SDS011;56582;44.624;20.378;2023-02-07T16:20:29;36.35;;;19.00;;
69392;SDS011;56582;44.624;20.378;2023-02-07T16:22:57;32.45;;;17.48;;
69392;SDS011;56582;44.624;20.378;2023-02-07T16:25:26;55.92;;;25.20;;
69392;SDS011;56582;44.624;20.378;2023-02-07T16:27:58;39.03;;;18.80;;
69392;SDS011;56582;44.624;20.378;2023-02-07T16:30:29;37.05;;;21.30;;
69392;SDS011;56582;44.624;20.378;2023-02-07T16:32:57;34.28;;;17.05;;
69392;SDS011;56582;44.624;20.378;2023-02-07T16:35:23;40.77;;;16.97;;
69392;SDS011;56582;44.624;20.378;2023-02-07T16:37:50;36.05;;;18.25;;
69392;SDS011;56582;44.624;20.378;2023-02-07T16:40:17;46.90;;;21.83;;
69392;SDS011;56582;44.624;20.378;2023-02-07T16:42:43;45.58;;;20.25;;
69392;SDS011;56582;44.624;20.378;2023-02-07T16:45:14;57.77;;;23.67;;
69392;SDS011;56582;44.624;20.378;2023-02-07T16:47:41;40.63;;;21.00;;
69392;SDS011;56582;44.624;20.378;2023-02-07T16:50:12;46.20;;;22.60;;
69392;SDS011;56582;44.624;20.378;2023-02-07T16:52:42;39.50;;;19.58;;
69392;SDS011;56582;44.624;20.378;2023-02-07T16:55:08;45.63;;;19.73;;
69392;SDS011;56582;44.624;20.378;2023-02-07T16:57:35;36.60;;;17.57;;
69392;SDS011;56582;44.624;20.378;2023-02-07T17:00:02;34.80;;;17.40;;
69392;SDS011;56582;44.624;20.378;2023-02-07T17:02:31;46.45;;;21.65;;
69392;SDS011;56582;44.624;20.378;2023-02-07T17:04:56;42.73;;;19.63;;
69392;SDS011;56582;44.624;20.378;2023-02-07T17:07:22;48.13;;;21.97;;
69392;SDS011;56582;44.624;20.378;2023-02-07T17:09:47;25.70;;;12.67;;
69392;SDS011;56582;44.624;20.378;2023-02-07T17:12:14;33.05;;;19.13;;
69392;SDS011;56582;44.624;20.378;2023-02-07T17:14:40;35.20;;;16.67;;
69392;SDS011;56582;44.624;20.378;2023-02-07T17:17:05;34.72;;;19.08;;
69392;SDS011;56582;44.624;20.378;2023-02-07T17:19:31;22.33;;;13.53;;
69392;SDS011;56582;44.624;20.378;2023-02-07T17:21:57;30.55;;;17.13;;
69392;SDS011;56582;44.624;20.378;2023-02-07T17:24:22;23.87;;;14.27;;
69392;SDS011;56582;44.624;20.378;2023-02-07T17:26:49;30.97;;;16.93;;
69392;SDS011;56582;44.624;20.378;2023-02-07T17:29:16;30.27;;;15.35;;
69392;SDS011;56582;44.624;20.378;2023-02-07T17:31:42;23.20;;;14.60;;
69392;SDS011;56582;44.624;20.378;2023-02-07T17:34:08;29.83;;;16.10;;
69392;SDS011;56582;44.624;20.378;2023-02-07T17:36:34;34.20;;;15.50;;
69392;SDS011;56582;44.624;20.378;2023-02-07T17:39:00;31.67;;;17.02;;
69392;SDS011;56582;44.624;20.378;2023-02-07T17:41:27;35.95;;;17.67;;
69392;SDS011;56582;44.624;20.378;2023-02-07T17:43:52;33.23;;;17.10;;
69392;SDS011;56582;44.624;20.378;2023-02-07T17:46:19;35.05;;;17.25;;
69392;SDS011;56582;44.624;20.378;2023-02-07T17:48:49;25.58;;;13.55;;
69392;SDS011;56582;44.624;20.378;2023-02-07T17:51:16;41.73;;;19.43;;
69392;SDS011;56582;44.624;20.378;2023-02-07T17:53:43;39.55;;;19.65;;
69392;SDS011;56582;44.624;20.378;2023-02-07T17:58:49;30.60;;;15.50;;
69392;SDS011;56582;44.624;20.378;2023-02-07T18:01:18;42.40;;;20.47;;
69392;SDS011;56582;44.624;20.378;2023-02-07T18:03:48;43.85;;;20.67;;
69392;SDS011;56582;44.624;20.378;2023-02-07T18:06:15;44.05;;;21.13;;
69392;SDS011;56582;44.624;20.378;2023-02-07T18:08:42;42.95;;;21.67;;
69392;SDS011;56582;44.624;20.378;2023-02-07T18:11:08;42.08;;;21.17;;
69392;SDS011;56582;44.624;20.378;2023-02-07T18:13:36;35.40;;;18.33;;
69392;SDS011;56582;44.624;20.378;2023-02-07T18:16:02;41.47;;;21.45;;
69392;SDS011;56582;44.624;20.378;2023-02-07T18:18:27;38.22;;;21.92;;
69392;SDS011;56582;44.624;20.378;2023-02-07T18:20:53;43.97;;;21.37;;
69392;SDS011;56582;44.624;20.378;2023-02-07T18:23:18;42.87;;;21.50;;
69392;SDS011;56582;44.624;20.378;2023-02-07T18:25:48;43.08;;;22.42;;
69392;SDS011;56582;44.624;20.378;2023-02-07T18:28:14;45.60;;;22.77;;
69392;SDS011;56582;44.624;20.378;2023-02-07T18:30:40;29.23;;;14.77;;
69392;SDS011;56582;44.624;20.378;2023-02-07T18:33:06;33.15;;;17.73;;
69392;SDS011;56582;44.624;20.378;2023-02-07T18:35:32;34.15;;;17.48;;
69392;SDS011;56582;44.624;20.378;2023-02-07T18:37:57;30.37;;;15.90;;
69392;SDS011;56582;44.624;20.378;2023-02-07T18:40:24;31.20;;;16.13;;
69392;SDS011;56582;44.624;20.378;2023-02-07T18:42:50;30.67;;;17.43;;
69392;SDS011;56582;44.624;20.378;2023-02-07T18:45:15;46.28;;;24.17;;
69392;SDS011;56582;44.624;20.378;2023-02-07T18:47:41;41.50;;;22.10;;
69392;SDS011;56582;44.624;20.378;2023-02-07T18:50:07;107.82;;;37.33;;
69392;SDS011;56582;44.624;20.378;2023-02-07T18:52:33;67.50;;;30.13;;
69392;SDS011;56582;44.624;20.378;2023-02-07T18:54:59;79.70;;;39.70;;
69392;SDS011;56582;44.624;20.378;2023-02-07T18:57:24;74.60;;;39.37;;
69392;SDS011;56582;44.624;20.378;2023-02-07T18:59:50;51.75;;;28.38;;
69392;SDS011;56582;44.624;20.378;2023-02-07T19:02:16;41.97;;;23.60;;
69392;SDS011;56582;44.624;20.378;2023-02-07T19:04:41;45.65;;;28.45;;
69392;SDS011;56582;44.624;20.378;2023-02-07T19:07:07;56.57;;;34.47;;
69392;SDS011;56582;44.624;20.378;2023-02-07T19:09:32;55.72;;;33.13;;
69392;SDS011;56582;44.624;20.378;2023-02-07T19:11:58;55.50;;;33.83;;
69392;SDS011;56582;44.624;20.378;2023-02-07T19:14:25;55.87;;;35.27;;
69392;SDS011;56582;44.624;20.378;2023-02-07T19:16:53;56.70;;;35.72;;
69392;SDS011;56582;44.624;20.378;2023-02-07T19:19:20;61.33;;;34.85;;
69392;SDS011;56582;44.624;20.378;2023-02-07T19:21:46;70.65;;;43.97;;
69392;SDS011;56582;44.624;20.378;2023-02-07T19:24:13;68.93;;;40.53;;
69392;SDS011;56582;44.624;20.378;2023-02-07T19:26:42;53.05;;;32.92;;
69392;SDS011;56582;44.624;20.378;2023-02-07T19:29:08;56.35;;;34.97;;
69392;SDS011;56582;44.624;20.378;2023-02-07T19:31:37;53.35;;;31.85;;
69392;SDS011;56582;44.624;20.378;2023-02-07T19:34:04;63.33;;;36.20;;
69392;SDS011;56582;44.624;20.378;2023-02-07T19:36:29;146.98;;;64.25;;
69392;SDS011;56582;44.624;20.378;2023-02-07T19:38:55;135.97;;;62.10;;
69392;SDS011;56582;44.624;20.378;2023-02-07T19:41:21;122.85;;;67.53;;
69392;SDS011;56582;44.624;20.378;2023-02-07T19:43:50;95.20;;;51.67;;
69392;SDS011;56582;44.624;20.378;2023-02-07T19:46:16;93.20;;;52.70;;
69392;SDS011;56582;44.624;20.378;2023-02-07T19:48:43;85.43;;;45.38;;
69392;SDS011;56582;44.624;20.378;2023-02-07T19:51:14;93.75;;;47.92;;
69392;SDS011;56582;44.624;20.378;2023-02-07T19:53:44;100.93;;;51.27;;
69392;SDS011;56582;44.624;20.378;2023-02-07T19:56:10;130.60;;;65.70;;
69392;SDS011;56582;44.624;20.378;2023-02-07T19:58:38;106.85;;;58.13;;
69392;SDS011;56582;44.624;20.378;2023-02-07T20:01:06;91.90;;;48.70;;
69392;SDS011;56582;44.624;20.378;2023-02-07T20:03:32;76.93;;;40.13;;
69392;SDS011;56582;44.624;20.378;2023-02-07T20:05:58;199.10;;;90.40;;
69392;SDS011;56582;44.624;20.378;2023-02-07T20:08:25;70.60;;;37.55;;
69392;SDS011;56582;44.624;20.378;2023-02-07T20:10:50;64.07;;;34.33;;
69392;SDS011;56582;44.624;20.378;2023-02-07T20:13:16;144.65;;;69.85;;
69392;SDS011;56582;44.624;20.378;2023-02-07T20:15:42;82.63;;;41.50;;
69392;SDS011;56582;44.624;20.378;2023-02-07T20:18:09;74.47;;;35.00;;
69392;SDS011;56582;44.624;20.378;2023-02-07T20:20:40;107.10;;;44.45;;
69392;SDS011;56582;44.624;20.378;2023-02-07T20:23:16;112.13;;;49.42;;
69392;SDS011;56582;44.624;20.378;2023-02-07T20:25:41;94.57;;;42.23;;
69392;SDS011;56582;44.624;20.378;2023-02-07T20:28:07;156.80;;;68.00;;
69392;SDS011;56582;44.624;20.378;2023-02-07T20:30:33;98.50;;;43.50;;
69392;SDS011;56582;44.624;20.378;2023-02-07T20:32:59;137.25;;;57.67;;
69392;SDS011;56582;44.624;20.378;2023-02-07T20:35:26;100.90;;;44.30;;
69392;SDS011;56582;44.624;20.378;2023-02-07T20:37:52;68.60;;;33.03;;
69392;SDS011;56582;44.624;20.378;2023-02-07T20:40:17;80.55;;;35.75;;
69392;SDS011;56582;44.624;20.378;2023-02-07T20:42:43;61.50;;;29.47;;
69392;SDS011;56582;44.624;20.378;2023-02-07T20:45:09;58.57;;;27.50;;
69392;SDS011;56582;44.624;20.378;2023-02-07T20:47:35;55.55;;;26.95;;
69392;SDS011;56582;44.624;20.378;2023-02-07T20:50:01;81.00;;;34.10;;
69392;SDS011;56582;44.624;20.378;2023-02-07T20:52:27;91.03;;;35.65;;
69392;SDS011;56582;44.624;20.378;2023-02-07T20:54:53;61.03;;;28.23;;
69392;SDS011;56582;44.624;20.378;2023-02-07T20:57:19;70.03;;;30.05;;
69392;SDS011;56582;44.624;20.378;2023-02-07T20:59:44;65.77;;;29.03;;
69392;SDS011;56582;44.624;20.378;2023-02-07T21:02:09;63.33;;;26.47;;
69392;SDS011;56582;44.624;20.378;2023-02-07T21:04:35;55.97;;;26.97;;
69392;SDS011;56582;44.624;20.378;2023-02-07T21:07:01;57.20;;;27.15;;
69392;SDS011;56582;44.624;20.378;2023-02-07T21:09:28;49.55;;;25.23;;
69392;SDS011;56582;44.624;20.378;2023-02-07T21:11:53;47.73;;;23.03;;
69392;SDS011;56582;44.624;20.378;2023-02-07T21:14:20;45.40;;;24.60;;
69392;SDS011;56582;44.624;20.378;2023-02-07T21:16:49;50.40;;;25.33;;
69392;SDS011;56582;44.624;20.378;2023-02-07T21:19:15;52.53;;;25.60;;
69392;SDS011;56582;44.624;20.378;2023-02-07T21:21:41;67.93;;;28.23;;
69392;SDS011;56582;44.624;20.378;2023-02-07T21:24:11;63.00;;;30.13;;
69392;SDS011;56582;44.624;20.378;2023-02-07T21:26:37;59.60;;;27.23;;
69392;SDS011;56582;44.624;20.378;2023-02-07T21:29:03;79.33;;;36.30;;
69392;SDS011;56582;44.624;20.378;2023-02-07T21:31:29;71.18;;;35.05;;
69392;SDS011;56582;44.624;20.378;2023-02-07T21:33:56;68.25;;;31.98;;
69392;SDS011;56582;44.624;20.378;2023-02-07T21:36:31;70.10;;;30.92;;
69392;SDS011;56582;44.624;20.378;2023-02-07T21:39:01;57.93;;;28.50;;
69392;SDS011;56582;44.624;20.378;2023-02-07T21:41:28;67.50;;;30.48;;
69392;SDS011;56582;44.624;20.378;2023-02-07T21:43:54;79.57;;;31.75;;
69392;SDS011;56582;44.624;20.378;2023-02-07T21:46:21;78.55;;;33.58;;
69392;SDS011;56582;44.624;20.378;2023-02-07T21:48:49;57.15;;;27.85;;
69392;SDS011;56582;44.624;20.378;2023-02-07T21:51:20;54.60;;;24.47;;
69392;SDS011;56582;44.624;20.378;2023-02-07T21:53:47;56.58;;;29.50;;
69392;SDS011;56582;44.624;20.378;2023-02-07T21:56:14;58.80;;;29.23;;
69392;SDS011;56582;44.624;20.378;2023-02-07T21:58:41;51.92;;;24.67;;
69392;SDS011;56582;44.624;20.378;2023-02-07T22:01:08;56.58;;;26.90;;
69392;SDS011;56582;44.624;20.378;2023-02-07T22:03:36;59.13;;;27.07;;
69392;SDS011;56582;44.624;20.378;2023-02-07T22:06:03;48.80;;;23.50;;
69392;SDS011;56582;44.624;20.378;2023-02-07T22:08:29;50.08;;;22.33;;
69392;SDS011;56582;44.624;20.378;2023-02-07T22:10:55;48.45;;;23.20;;
69392;SDS011;56582;44.624;20.378;2023-02-07T22:13:21;47.23;;;22.57;;
69392;SDS011;56582;44.624;20.378;2023-02-07T22:15:47;47.63;;;23.03;;
69392;SDS011;56582;44.624;20.378;2023-02-07T22:18:13;49.72;;;23.15;;
69392;SDS011;56582;44.624;20.378;2023-02-07T22:20:39;41.10;;;20.17;;
69392;SDS011;56582;44.624;20.378;2023-02-07T22:23:05;35.20;;;18.88;;
69392;SDS011;56582;44.624;20.378;2023-02-07T22:25:31;41.63;;;21.10;;
69392;SDS011;56582;44.624;20.378;2023-02-07T22:27:56;37.63;;;19.83;;
69392;SDS011;56582;44.624;20.378;2023-02-07T22:30:22;36.47;;;18.93;;
69392;SDS011;56582;44.624;20.378;2023-02-07T22:32:48;39.97;;;19.45;;
69392;SDS011;56582;44.624;20.378;2023-02-07T22:35:13;41.57;;;19.67;;
69392;SDS011;56582;44.624;20.378;2023-02-07T22:37:38;38.77;;;20.70;;
69392;SDS011;56582;44.624;20.378;2023-02-07T22:40:06;47.90;;;22.73;;
69392;SDS011;56582;44.624;20.378;2023-02-07T22:42:33;35.87;;;18.80;;
69392;SDS011;56582;44.624;20.378;2023-02-07T22:44:58;30.30;;;16.67;;
69392;SDS011;56582;44.624;20.378;2023-02-07T22:47:24;38.72;;;19.30;;
69392;SDS011;56582;44.624;20.378;2023-02-07T22:49:50;43.37;;;20.90;;
69392;SDS011;56582;44.624;20.378;2023-02-07T22:52:16;41.95;;;20.95;;
69392;SDS011;56582;44.624;20.378;2023-02-07T22:54:42;44.15;;;21.73;;
69392;SDS011;56582;44.624;20.378;2023-02-07T22:57:07;54.47;;;28.20;;
69392;SDS011;56582;44.624;20.378;2023-02-07T22:59:37;44.72;;;23.17;;
69392;SDS011;56582;44.624;20.378;2023-02-07T23:02:03;34.27;;;17.97;;
69392;SDS011;56582;44.624;20.378;2023-02-07T23:04:28;42.83;;;21.17;;
69392;SDS011;56582;44.624;20.378;2023-02-07T23:06:55;41.60;;;18.57;;
69392;SDS011;56582;44.624;20.378;2023-02-07T23:09:20;29.58;;;14.88;;
69392;SDS011;56582;44.624;20.378;2023-02-07T23:11:46;41.17;;;20.40;;
69392;SDS011;56582;44.624;20.378;2023-02-07T23:14:11;40.75;;;18.98;;